Time;durP1;ratioP1;P1;durP2;ratioP2;P2;SDS_P1;SDS_P2;PMS_P1;PMS_P2;Temp;Humidity;BMP_temperature;BMP_pressure;BME280_temperature;BME280_humidity;BME280_pressure;Samples;Min_cycle;Max_cycle;Signal;HPM_P1;HPM_P2
2020/12/23 00:01:15;;;;;;;42.95;28.27;;;9.60;99.90;;;;;;4957256;28;20030;-86
2020/12/23 00:03:41;;;;;;;51.17;33.53;;;9.60;99.90;;;;;;4974580;28;20042;-86
2020/12/23 00:06:07;;;;;;;46.83;31.25;;;9.60;99.90;;;;;;4941183;28;20403;-85
2020/12/23 00:08:33;;;;;;;42.30;27.45;;;9.70;99.90;;;;;;4941147;28;20049;-85
2020/12/23 00:10:59;;;;;;;45.83;29.20;;;9.70;99.90;;;;;;4941023;28;20027;-85
2020/12/23 00:13:25;;;;;;;50.90;32.25;;;9.70;99.90;;;;;;4944382;28;20035;-85
2020/12/23 00:15:51;;;;;;;49.00;31.48;;;9.60;99.90;;;;;;4963411;28;20031;-85
2020/12/23 00:18:16;;;;;;;52.63;29.73;;;9.70;99.90;;;;;;4961229;28;20081;-85
2020/12/23 00:20:42;;;;;;;47.90;29.02;;;9.70;99.90;;;;;;4945293;28;20041;-85
2020/12/23 00:23:08;;;;;;;51.83;30.73;;;9.80;99.90;;;;;;4944837;28;20047;-86
2020/12/23 00:25:33;;;;;;;47.13;29.70;;;9.70;99.90;;;;;;4945067;28;20407;-86
2020/12/23 00:27:59;;;;;;;45.78;29.67;;;9.80;99.90;;;;;;4944987;28;20127;-86
2020/12/23 00:30:24;;;;;;;52.10;30.63;;;9.90;99.90;;;;;;4961283;28;20038;-86
2020/12/23 00:32:50;;;;;;;48.78;31.20;;;9.90;99.90;;;;;;4961370;28;20480;-86
2020/12/23 00:35:16;;;;;;;60.80;35.83;;;9.80;99.90;;;;;;4961967;28;20093;-86
2020/12/23 00:37:41;;;;;;;58.55;32.50;;;9.80;99.90;;;;;;4945935;28;20061;-87
2020/12/23 00:40:08;;;;;;;54.15;31.70;;;9.80;99.90;;;;;;4945707;28;20499;-86
2020/12/23 00:42:34;;;;;;;53.85;34.63;;;9.90;99.90;;;;;;4962155;28;20107;-86
2020/12/23 00:44:59;;;;;;;66.13;37.97;;;9.90;99.90;;;;;;4945762;28;20473;-86
2020/12/23 00:47:25;;;;;;;58.42;35.63;;;9.90;99.90;;;;;;4979327;28;20042;-85
2020/12/23 00:49:51;;;;;;;56.97;33.17;;;9.90;99.90;;;;;;4945608;28;20401;-86
2020/12/23 00:52:17;;;;;;;58.03;31.50;;;10.00;99.90;;;;;;4946009;28;20031;-86
2020/12/23 00:54:42;;;;;;;55.00;32.97;;;10.00;99.90;;;;;;4946679;28;20530;-86
2020/12/23 00:57:08;;;;;;;57.33;33.03;;;10.00;99.90;;;;;;4945985;28;20035;-86
2020/12/23 00:59:34;;;;;;;59.13;33.47;;;10.10;99.90;;;;;;4945538;28;20496;-86
2020/12/23 01:02:00;;;;;;;58.08;34.72;;;10.00;99.90;;;;;;4978802;28;20034;-85
2020/12/23 01:04:27;;;;;;;69.18;37.60;;;10.00;99.90;;;;;;4944801;28;20034;-85
2020/12/23 01:06:53;;;;;;;64.13;37.65;;;10.00;99.90;;;;;;4959967;28;20050;-87
2020/12/23 01:09:19;;;;;;;61.45;35.05;;;10.10;99.90;;;;;;4943986;28;20030;-85
2020/12/23 01:11:45;;;;;;;60.78;34.10;;;10.20;99.90;;;;;;4960198;28;20070;-86
2020/12/23 01:14:10;;;;;;;73.55;38.50;;;10.00;99.90;;;;;;4959901;28;20419;-86
2020/12/23 01:16:36;;;;;;;80.63;45.80;;;9.90;99.90;;;;;;4960251;28;20105;-85
2020/12/23 01:19:03;;;;;;;77.45;43.05;;;9.80;99.90;;;;;;4970857;28;20034;-84
2020/12/23 01:21:29;;;;;;;72.53;37.85;;;9.80;99.90;;;;;;4988188;28;20050;-86
2020/12/23 01:23:54;;;;;;;95.90;48.30;;;9.80;99.90;;;;;;4966056;28;20035;-85
2020/12/23 01:26:20;;;;;;;78.63;42.20;;;9.70;99.90;;;;;;4960762;28;20033;-85
2020/12/23 01:28:46;;;;;;;92.22;45.00;;;9.70;99.90;;;;;;4960182;28;20480;-86
2020/12/23 01:31:12;;;;;;;89.60;45.50;;;9.70;99.90;;;;;;4959216;28;20469;-85
2020/12/23 01:33:37;;;;;;;79.10;40.65;;;9.70;99.90;;;;;;4959793;28;20062;-86
2020/12/23 01:36:03;;;;;;;82.40;41.83;;;9.80;99.90;;;;;;4943572;28;20058;-87
2020/12/23 01:38:29;;;;;;;77.22;38.45;;;9.80;99.90;;;;;;4943670;28;20487;-86
2020/12/23 01:40:59;;;;;;;94.82;45.45;;;9.90;99.90;;;;;;4976869;28;20381;-87
2020/12/23 01:43:25;;;;;;;88.82;43.75;;;9.90;99.90;;;;;;4976979;28;20051;-86
2020/12/23 01:45:50;;;;;;;84.15;41.60;;;9.80;99.90;;;;;;4943496;28;20592;-85
2020/12/23 01:48:29;;;;;;;98.85;45.97;;;9.80;99.90;;;;;;4959517;28;20125;-86
2020/12/23 01:50:58;;;;;;;99.57;46.75;;;9.80;99.90;;;;;;4959355;28;20027;-87
2020/12/23 01:53:25;;;;;;;92.47;45.08;;;9.80;99.90;;;;;;4959223;28;20042;-85
2020/12/23 01:55:51;;;;;;;93.03;45.42;;;9.80;99.90;;;;;;4944100;28;20030;-86
2020/12/23 01:58:17;;;;;;;89.47;43.78;;;9.80;99.90;;;;;;4945317;28;20101;-86
2020/12/23 02:00:43;;;;;;;114.53;49.88;;;9.80;99.90;;;;;;4961685;28;20035;-85
2020/12/23 02:03:11;;;;;;;131.57;55.88;;;9.80;99.90;;;;;;4958605;28;20133;-86
2020/12/23 02:05:37;;;;;;;124.43;54.63;;;9.70;99.90;;;;;;4959006;28;20530;-86
2020/12/23 02:08:03;;;;;;;112.65;51.45;;;9.70;99.90;;;;;;4958535;28;20031;-85
2020/12/23 02:10:29;;;;;;;132.68;54.80;;;9.70;99.90;;;;;;4943095;28;20085;-84
2020/12/23 02:12:55;;;;;;;153.55;61.92;;;9.70;99.90;;;;;;4976155;28;20483;-85
2020/12/23 02:15:21;;;;;;;179.32;67.70;;;9.70;99.90;;;;;;4958535;28;20113;-85
2020/12/23 02:17:48;;;;;;;151.65;61.47;;;9.70;99.90;;;;;;4958414;28;20133;-85
2020/12/23 02:20:15;;;;;;;206.40;73.22;;;9.70;99.90;;;;;;4975809;28;20062;-85
2020/12/23 02:22:41;;;;;;;191.70;74.38;;;9.70;99.90;;;;;;4958222;28;20129;-85
2020/12/23 02:25:08;;;;;;;117.07;52.13;;;9.70;99.90;;;;;;4958708;28;20059;-85
2020/12/23 02:27:34;;;;;;;130.05;55.33;;;9.70;99.90;;;;;;4975866;28;20034;-85
2020/12/23 02:30:00;;;;;;;178.43;67.45;;;9.70;99.90;;;;;;4958431;28;20121;-85
2020/12/23 02:32:27;;;;;;;174.25;65.32;;;9.70;99.90;;;;;;4958093;28;20062;-85
2020/12/23 02:34:53;;;;;;;179.80;66.85;;;9.60;99.90;;;;;;4942297;28;20039;-85
2020/12/23 02:37:20;;;;;;;165.80;62.10;;;9.70;99.90;;;;;;4957375;28;20370;-84
2020/12/23 02:39:52;;;;;;;156.85;64.47;;;9.70;99.90;;;;;;4975787;28;20031;-85
2020/12/23 02:42:19;;;;;;;192.27;72.40;;;9.70;99.90;;;;;;4957998;28;20034;-85
2020/12/23 02:44:47;;;;;;;146.25;59.67;;;9.60;99.90;;;;;;4957893;28;20030;-86
2020/12/23 02:47:16;;;;;;;149.57;61.75;;;9.60;99.90;;;;;;4957719;28;20035;-84
2020/12/23 02:49:42;;;;;;;147.73;60.42;;;9.60;99.90;;;;;;4958113;28;20034;-84
2020/12/23 02:52:08;;;;;;;167.55;64.00;;;9.60;99.90;;;;;;4975338;28;20027;-84
2020/12/23 02:54:35;;;;;;;183.02;70.78;;;9.60;99.90;;;;;;4942277;28;20097;-84
2020/12/23 02:57:01;;;;;;;182.68;68.13;;;9.60;99.90;;;;;;4941790;28;20031;-87
2020/12/23 02:59:26;;;;;;;155.75;61.70;;;9.60;99.90;;;;;;4941927;28;20516;-86
2020/12/23 03:01:52;;;;;;;161.45;63.67;;;9.60;99.90;;;;;;4942088;28;20070;-85
2020/12/23 03:04:18;;;;;;;164.77;64.65;;;9.60;99.90;;;;;;4941727;28;20026;-85
2020/12/23 03:06:43;;;;;;;265.95;83.47;;;9.60;99.90;;;;;;4974828;28;20106;-84
2020/12/23 03:09:10;;;;;;;223.18;75.95;;;9.60;99.90;;;;;;4957684;28;20031;-86
2020/12/23 03:11:37;;;;;;;164.15;62.63;;;9.60;99.90;;;;;;4957964;28;20516;-86
2020/12/23 03:14:04;;;;;;;183.90;68.65;;;9.70;99.90;;;;;;4941503;28;20058;-88
2020/12/23 03:16:30;;;;;;;189.75;74.10;;;9.70;99.90;;;;;;4975448;28;20106;-86
2020/12/23 03:18:55;;;;;;;150.25;63.03;;;9.70;99.90;;;;;;4941339;28;20062;-86
2020/12/23 03:21:21;;;;;;;247.02;82.82;;;9.70;99.90;;;;;;4957505;28;20058;-85
2020/12/23 03:23:47;;;;;;;169.50;67.88;;;9.70;99.90;;;;;;4941568;28;20054;-86
2020/12/23 03:26:13;;;;;;;163.63;65.15;;;9.70;99.90;;;;;;4957520;28;20043;-85
2020/12/23 03:28:39;;;;;;;150.68;62.25;;;9.70;99.90;;;;;;4957182;28;20027;-86
2020/12/23 03:31:05;;;;;;;279.92;88.45;;;9.70;99.90;;;;;;4941351;28;20038;-86
2020/12/23 03:33:31;;;;;;;115.30;54.53;;;9.70;99.90;;;;;;4957547;28;20035;-86
2020/12/23 03:35:57;;;;;;;124.40;55.70;;;9.70;99.90;;;;;;4974556;28;20027;-85
2020/12/23 03:38:23;;;;;;;174.63;69.10;;;9.80;99.90;;;;;;4957100;28;20038;-85
2020/12/23 03:40:49;;;;;;;144.55;60.13;;;9.80;99.90;;;;;;4957277;28;20392;-85
2020/12/23 03:43:15;;;;;;;132.27;55.00;;;9.80;99.90;;;;;;4957442;28;20108;-86
2020/12/23 03:45:41;;;;;;;150.50;60.50;;;9.80;99.90;;;;;;4957095;28;20418;-85
2020/12/23 03:48:06;;;;;;;153.68;61.67;;;9.90;99.90;;;;;;4957327;28;20480;-86
2020/12/23 03:50:32;;;;;;;134.48;57.13;;;9.80;99.90;;;;;;4941784;28;20061;-85
2020/12/23 03:52:58;;;;;;;161.98;60.63;;;9.80;99.90;;;;;;4957162;28;20422;-85
2020/12/23 03:55:24;;;;;;;172.38;65.03;;;9.80;99.90;;;;;;4964886;28;20023;-84
2020/12/23 03:57:50;;;;;;;192.07;69.43;;;9.80;99.90;;;;;;4952385;28;20126;-86
2020/12/23 04:00:15;;;;;;;148.98;60.60;;;9.80;99.90;;;;;;4958780;28;20045;-86
2020/12/23 04:02:41;;;;;;;203.52;71.63;;;9.80;99.90;;;;;;4941865;28;20039;-85
2020/12/23 04:05:07;;;;;;;101.28;48.28;;;9.80;99.90;;;;;;4940758;28;20046;-89
2020/12/23 04:07:33;;;;;;;183.68;69.75;;;9.90;99.90;;;;;;4957334;28;20027;-85
2020/12/23 04:09:59;;;;;;;129.88;56.10;;;9.80;99.90;;;;;;4974010;28;20453;-85
2020/12/23 04:12:25;;;;;;;203.02;72.72;;;9.80;99.90;;;;;;4956604;28;20039;-85
2020/12/23 04:14:51;;;;;;;103.15;51.92;;;9.80;99.90;;;;;;4956645;28;20026;-85
2020/12/23 04:17:17;;;;;;;118.60;54.40;;;9.90;99.90;;;;;;4940841;28;20530;-85
2020/12/23 04:19:42;;;;;;;204.80;72.50;;;9.90;99.90;;;;;;4940994;28;20190;-85
2020/12/23 04:22:08;;;;;;;102.00;49.90;;;9.90;99.90;;;;;;4940555;28;20050;-91
2020/12/23 04:24:34;;;;;;;88.82;46.45;;;9.80;99.90;;;;;;4940675;28;20465;-85
2020/12/23 04:26:59;;;;;;;97.10;45.88;;;9.90;99.90;;;;;;4956738;28;20109;-85
2020/12/23 04:29:25;;;;;;;168.45;64.88;;;10.00;99.90;;;;;;4956612;28;20113;-86
2020/12/23 04:31:51;;;;;;;140.48;57.47;;;9.90;99.90;;;;;;4973056;28;20476;-86
2020/12/23 04:34:17;;;;;;;104.95;49.88;;;9.90;99.90;;;;;;4940914;28;20468;-87
2020/12/23 04:36:42;;;;;;;163.80;63.53;;;9.90;99.90;;;;;;4940835;28;20473;-87
2020/12/23 04:39:08;;;;;;;120.55;54.90;;;9.90;99.90;;;;;;4956725;28;20512;-86
2020/12/23 04:41:34;;;;;;;213.32;72.75;;;10.00;99.90;;;;;;4956612;28;20049;-87
2020/12/23 04:44:01;;;;;;;224.52;72.82;;;9.90;99.90;;;;;;4974082;28;20122;-87
2020/12/23 04:46:32;;;;;;;209.48;68.63;;;10.00;99.90;;;;;;4956523;28;20031;-86
2020/12/23 04:48:59;;;;;;;171.40;58.97;;;9.90;99.90;;;;;;4956065;28;20037;-86
2020/12/23 04:51:30;;;;;;;153.38;57.70;;;9.90;99.90;;;;;;4940336;28;20053;-86
2020/12/23 04:53:56;;;;;;;110.30;47.90;;;10.00;99.90;;;;;;4974099;28;20472;-87
2020/12/23 04:56:25;;;;;;;230.13;73.38;;;10.00;99.90;;;;;;4924654;28;20031;-87
2020/12/23 04:58:54;;;;;;;140.68;55.38;;;10.00;99.90;;;;;;4956755;28;20086;-86
2020/12/23 05:01:20;;;;;;;152.35;57.83;;;10.00;99.90;;;;;;4960134;28;20034;-85
2020/12/23 05:03:46;;;;;;;147.35;51.60;;;9.90;99.90;;;;;;4944340;28;20035;-86
2020/12/23 05:06:12;;;;;;;180.00;58.80;;;10.00;99.90;;;;;;4944390;28;20082;-86
2020/12/23 05:08:38;;;;;;;125.53;51.88;;;10.00;99.90;;;;;;4945787;28;20069;-86
2020/12/23 05:11:08;;;;;;;108.38;50.85;;;10.00;99.90;;;;;;4946911;28;20023;-87
2020/12/23 05:13:35;;;;;;;127.85;55.90;;;10.10;99.90;;;;;;4946268;28;20049;-87
2020/12/23 05:16:07;;;;;;;169.50;62.88;;;10.10;99.90;;;;;;4962549;28;20027;-87
2020/12/23 05:18:34;;;;;;;101.57;49.67;;;10.00;99.90;;;;;;4960859;28;20055;-86
2020/12/23 05:21:00;;;;;;;137.32;56.28;;;10.10;99.90;;;;;;4944490;28;20054;-86
2020/12/23 05:23:31;;;;;;;309.83;87.68;;;10.10;99.90;;;;;;4928016;28;20134;-87
2020/12/23 05:26:04;;;;;;;252.30;75.68;;;10.10;99.90;;;;;;4960118;28;20038;-86
2020/12/23 05:28:31;;;;;;;361.30;99.63;;;10.10;99.90;;;;;;4959771;28;20115;-86
2020/12/23 05:30:57;;;;;;;145.10;56.80;;;10.10;99.90;;;;;;4977380;28;20110;-86
2020/12/23 05:33:22;;;;;;;138.27;60.78;;;10.20;99.90;;;;;;4977063;28;20130;-86
2020/12/23 05:35:48;;;;;;;137.40;58.05;;;10.10;99.90;;;;;;4943362;28;20563;-86
2020/12/23 05:38:19;;;;;;;335.92;97.90;;;10.20;99.90;;;;;;4959931;28;20037;-86
2020/12/23 05:40:45;;;;;;;289.67;86.43;;;10.20;99.90;;;;;;4959912;28;20027;-86
2020/12/23 05:43:10;;;;;;;125.57;57.17;;;10.20;99.90;;;;;;4959443;28;20026;-87
2020/12/23 05:45:41;;;;;;;230.60;79.93;;;10.30;99.90;;;;;;4959828;28;20260;-87
2020/12/23 05:48:14;;;;;;;123.90;54.95;;;10.30;99.90;;;;;;4977030;28;20027;-86
2020/12/23 05:50:40;;;;;;;147.05;62.30;;;10.30;99.90;;;;;;4959262;28;20105;-87
2020/12/23 05:53:14;;;;;;;143.75;59.63;;;10.30;99.90;;;;;;4959955;28;20464;-88
2020/12/23 05:55:50;;;;;;;119.70;52.88;;;10.30;99.90;;;;;;4958792;28;20027;-86
2020/12/23 05:58:23;;;;;;;209.18;79.10;;;10.30;99.90;;;;;;4943180;28;20100;-86
2020/12/23 06:00:50;;;;;;;107.72;52.20;;;10.30;99.90;;;;;;4942964;28;20035;-86
2020/12/23 06:03:29;;;;;;;99.60;52.15;;;10.30;99.90;;;;;;4976419;28;20031;-85
2020/12/23 06:06:06;;;;;;;148.90;61.83;;;10.40;99.90;;;;;;4959306;28;20027;-86
2020/12/23 06:08:32;;;;;;;98.00;47.58;;;10.40;99.90;;;;;;4958907;28;20046;-86
2020/12/23 06:11:21;;;;;;;105.25;52.17;;;10.40;99.90;;;;;;4957667;28;20468;-86
2020/12/23 06:14:06;;;;;;;180.27;68.68;;;10.40;99.90;;;;;;4958882;28;20615;-86
2020/12/23 06:16:34;;;;;;;133.75;55.95;;;10.40;99.90;;;;;;4958727;28;20031;-86
2020/12/23 06:19:01;;;;;;;125.53;56.72;;;10.40;99.90;;;;;;4943002;28;20122;-86
2020/12/23 06:21:28;;;;;;;88.10;47.03;;;10.50;99.90;;;;;;4942619;28;20134;-86
2020/12/23 06:24:07;;;;;;;82.10;43.55;;;10.60;99.90;;;;;;4942532;28;20484;-82
2020/12/23 06:26:40;;;;;;;85.03;44.67;;;10.60;99.90;;;;;;4958473;28;20027;-81
2020/12/23 06:29:08;;;;;;;77.60;44.25;;;10.60;99.90;;;;;;4976423;28;20099;-86
2020/12/23 06:31:59;;;;;;;147.98;56.72;;;10.60;99.90;;;;;;4979065;28;20034;-86
2020/12/23 06:34:27;;;;;;;148.52;59.63;;;10.60;99.90;;;;;;4971199;28;20031;-87
2020/12/23 06:36:54;;;;;;;208.68;73.10;;;10.60;99.90;;;;;;4946163;28;20031;-87
2020/12/23 06:39:19;;;;;;;79.45;46.22;;;10.60;99.90;;;;;;4944349;28;20030;-87
2020/12/23 06:41:46;;;;;;;75.82;42.58;;;10.60;99.90;;;;;;4958431;28;20480;-87
2020/12/23 06:44:12;;;;;;;142.35;60.95;;;10.70;99.90;;;;;;4942895;28;20035;-86
2020/12/23 06:46:56;;;;;;;129.32;58.10;;;10.70;99.90;;;;;;4926612;28;20046;-87
2020/12/23 06:49:39;;;;;;;72.05;43.75;;;10.70;99.90;;;;;;4958519;28;20027;-87
2020/12/23 06:55:04;;;;;;;106.93;52.38;;;10.90;99.90;;;;;;4976110;28;20031;-87
2020/12/23 06:57:35;;;;;;;78.85;42.35;;;10.90;99.90;;;;;;4958531;28;20026;-87
2020/12/23 07:00:26;;;;;;;79.22;44.47;;;10.90;99.90;;;;;;4958183;28;20051;-87
2020/12/23 07:03:04;;;;;;;62.38;37.22;;;10.90;99.90;;;;;;4959065;28;20427;-87
2020/12/23 07:05:37;;;;;;;57.90;35.95;;;10.90;99.90;;;;;;4975595;28;20030;-87
2020/12/23 07:08:06;;;;;;;55.65;33.58;;;10.80;99.90;;;;;;4958505;28;20031;-85
2020/12/23 07:10:46;;;;;;;117.32;52.53;;;10.80;99.90;;;;;;4957899;28;20031;-87
2020/12/23 07:13:16;;;;;;;61.08;33.55;;;10.80;99.90;;;;;;4958649;28;20038;-87
2020/12/23 07:15:51;;;;;;;59.70;35.53;;;10.90;99.90;;;;;;4958154;28;20027;-87
2020/12/23 07:18:27;;;;;;;56.67;32.13;;;10.90;99.90;;;;;;4958547;28;20027;-88
2020/12/23 07:21:03;;;;;;;65.57;36.17;;;10.90;99.90;;;;;;4975926;28;20027;-88
2020/12/23 07:23:31;;;;;;;94.38;46.17;;;11.00;99.90;;;;;;4958145;28;20066;-88
2020/12/23 07:26:04;;;;;;;60.00;35.67;;;11.10;99.90;;;;;;4958316;28;20050;-87
2020/12/23 07:28:42;;;;;;;58.28;36.00;;;10.90;99.90;;;;;;4957520;28;20034;-89
2020/12/23 07:31:11;;;;;;;171.40;66.47;;;10.90;99.90;;;;;;4942101;28;20061;-88
2020/12/23 07:33:39;;;;;;;67.13;38.00;;;11.00;99.90;;;;;;4958223;28;20385;-88
2020/12/23 07:36:11;;;;;;;57.03;34.75;;;10.90;99.90;;;;;;4941951;28;20054;-88
2020/12/23 07:38:43;;;;;;;56.03;35.75;;;11.00;99.90;;;;;;4945763;28;20510;-90
2020/12/23 07:41:12;;;;;;;60.25;35.20;;;11.10;99.90;;;;;;4959186;28;20038;-88
2020/12/23 07:43:38;;;;;;;129.85;51.55;;;11.10;99.90;;;;;;4976130;28;20110;-88
2020/12/23 07:46:04;;;;;;;104.35;46.17;;;11.00;99.90;;;;;;4959143;28;20030;-85
2020/12/23 07:48:37;;;;;;;54.53;31.33;;;11.10;99.90;;;;;;4957186;28;20117;-86
2020/12/23 07:51:03;;;;;;;63.10;32.65;;;11.10;99.90;;;;;;4942052;28;20042;-87
2020/12/23 07:53:33;;;;;;;53.60;31.33;;;11.10;99.90;;;;;;4941128;28;20035;-89
2020/12/23 07:56:07;;;;;;;118.15;46.03;;;11.00;99.90;;;;;;4957000;28;20026;-87
2020/12/23 07:58:34;;;;;;;61.35;32.83;;;11.10;99.90;;;;;;4974507;28;20055;-87
2020/12/23 08:01:00;;;;;;;70.38;33.90;;;11.10;99.90;;;;;;4941528;28;20035;-86
2020/12/23 08:03:32;;;;;;;48.35;29.05;;;11.10;99.90;;;;;;4957276;28;20093;-86
2020/12/23 08:06:10;;;;;;;47.35;28.00;;;11.20;99.90;;;;;;4957451;28;20035;-87
2020/12/23 08:08:39;;;;;;;102.80;43.33;;;11.20;99.90;;;;;;4957128;28;20030;-86
2020/12/23 08:11:15;;;;;;;72.10;36.85;;;11.20;99.90;;;;;;4974181;28;20480;-87
2020/12/23 08:13:48;;;;;;;112.05;45.65;;;11.30;99.90;;;;;;4974608;28;20026;-88
2020/12/23 08:16:18;;;;;;;76.72;35.22;;;11.20;99.90;;;;;;4957341;28;20026;-88
2020/12/23 08:18:55;;;;;;;128.23;49.10;;;11.30;99.90;;;;;;4956923;28;20035;-87
2020/12/23 08:21:20;;;;;;;84.28;39.53;;;11.20;99.90;;;;;;4957456;28;20027;-87
2020/12/23 08:23:51;;;;;;;51.22;30.00;;;11.20;99.90;;;;;;4957465;28;20058;-87
2020/12/23 08:26:17;;;;;;;59.20;31.83;;;11.30;99.90;;;;;;4957116;28;20034;-87
2020/12/23 08:28:44;;;;;;;88.55;40.90;;;11.30;99.90;;;;;;4956760;28;20050;-87
2020/12/23 08:31:19;;;;;;;55.55;32.70;;;11.30;99.90;;;;;;4956298;28;20457;-86
2020/12/23 08:33:45;;;;;;;;;;;11.40;99.90;;;;;;4957575;28;20026;-87
2020/12/23 08:36:11;;;;;;;75.93;36.58;;;11.40;99.90;;;;;;4960880;28;20269;-87
2020/12/23 08:38:38;;;;;;;55.92;29.88;;;11.30;99.90;;;;;;4960916;28;20030;-87
2020/12/23 08:41:14;;;;;;;40.58;26.42;;;11.30;99.90;;;;;;4978395;28;20027;-88
2020/12/23 08:43:48;;;;;;;59.08;31.05;;;11.30;99.90;;;;;;4960367;28;20475;-88
2020/12/23 08:46:24;;;;;;;45.90;25.40;;;11.40;99.90;;;;;;4960774;28;20033;-87
2020/12/23 08:48:51;;;;;;;161.13;41.40;;;11.30;99.90;;;;;;4961207;28;20031;-89
2020/12/23 08:51:19;;;;;;;90.38;37.25;;;11.40;99.90;;;;;;4944819;28;20038;-88
2020/12/23 08:53:52;;;;;;;46.70;26.73;;;11.40;99.90;;;;;;4960740;28;20070;-89
2020/12/23 08:56:33;;;;;;;41.15;22.02;;;11.40;99.90;;;;;;4930557;28;20101;-88
2020/12/23 08:59:04;;;;;;;60.10;25.80;;;11.50;99.90;;;;;;4960725;28;20058;-88
2020/12/23 09:01:31;;;;;;;39.13;23.02;;;11.50;99.90;;;;;;4961095;28;20023;-88
2020/12/23 09:04:07;;;;;;;77.07;26.08;;;11.50;99.90;;;;;;4960474;28;20040;-89
2020/12/23 09:06:47;;;;;;;38.60;23.00;;;11.50;99.90;;;;;;4977938;28;20066;-89
2020/12/23 09:09:26;;;;;;;48.75;25.63;;;11.50;99.90;;;;;;4971400;28;20034;-86
2020/12/23 09:11:57;;;;;;;34.40;22.70;;;11.50;99.90;;;;;;4990374;28;20102;-89
2020/12/23 09:14:25;;;;;;;36.92;24.83;;;11.50;99.90;;;;;;4953515;28;20065;-88
2020/12/23 09:16:54;;;;;;;48.83;28.30;;;11.60;99.90;;;;;;4965674;28;20491;-88
2020/12/23 09:22:11;;;;;;;45.80;29.25;;;11.50;99.90;;;;;;4981576;28;20031;-89
2020/12/23 09:24:42;;;;;;;55.25;34.47;;;11.50;99.90;;;;;;4948658;28;20472;-88
2020/12/23 09:27:24;;;;;;;60.05;36.45;;;11.50;99.90;;;;;;4963578;28;20050;-88
2020/12/23 09:29:52;;;;;;;57.17;37.25;;;11.50;99.90;;;;;;4964352;28;20035;-88
2020/12/23 09:32:20;;;;;;;41.42;30.67;;;11.50;99.90;;;;;;4965082;28;20039;-89
2020/12/23 09:35:12;;;;;;;48.95;34.97;;;11.50;99.90;;;;;;4964979;28;20026;-89
2020/12/23 09:37:47;;;;;;;69.80;41.50;;;11.60;99.90;;;;;;4963795;28;20077;-89
2020/12/23 09:40:17;;;;;;;55.25;38.72;;;11.60;99.90;;;;;;4963532;28;20310;-89
2020/12/23 09:42:45;;;;;;;60.13;38.03;;;11.60;99.90;;;;;;4962540;28;20027;-89
2020/12/23 09:45:13;;;;;;;59.05;39.30;;;11.60;99.90;;;;;;4962359;28;20070;-88
2020/12/23 09:47:47;;;;;;;59.83;39.80;;;11.60;99.90;;;;;;4962427;28;20113;-90
2020/12/23 09:50:18;;;;;;;77.40;45.35;;;11.60;99.90;;;;;;4946412;28;20081;-89
2020/12/23 09:52:46;;;;;;;55.72;39.30;;;11.60;99.90;;;;;;4961900;28;20122;-90
2020/12/23 09:55:22;;;;;;;;;;;;;;;;;;;;;
2020/12/23 09:57:48;;;;;;;64.97;36.75;;;11.50;99.90;;;;;;4978979;28;20360;-90
2020/12/23 10:00:19;;;;;;;49.83;33.70;;;11.50;99.90;;;;;;4961406;28;20126;-90
2020/12/23 10:02:47;;;;;;;71.88;43.17;;;11.50;99.90;;;;;;4962502;28;20058;-92
2020/12/23 10:05:14;;;;;;;44.40;32.25;;;11.50;99.90;;;;;;4962243;28;20027;-89
2020/12/23 10:07:44;;;;;;;70.63;40.10;;;11.50;99.90;;;;;;4962465;28;20464;-89
2020/12/23 10:10:10;;;;;;;57.33;37.03;;;11.60;99.90;;;;;;4946463;28;20031;-90
2020/12/23 10:12:36;;;;;;;35.28;27.70;;;11.50;99.90;;;;;;4962213;28;20396;-89
2020/12/23 10:15:07;;;;;;;48.92;32.53;;;11.50;99.90;;;;;;4962792;28;20038;-91
2020/12/23 10:18:10;;;;;;;;;;;;;;;;;;;;;
2020/12/23 10:20:45;;;;;;;41.45;31.20;;;11.60;99.90;;;;;;4978650;28;20038;-91
2020/12/23 10:23:15;;;;;;;49.47;33.30;;;11.50;99.90;;;;;;4930600;28;20039;-90
2020/12/23 10:25:43;;;;;;;37.83;28.35;;;11.60;99.90;;;;;;4945741;28;20038;-89
2020/12/23 10:28:17;;;;;;;39.45;28.40;;;11.50;99.90;;;;;;4961532;28;20142;-88
2020/12/23 10:31:07;;;;;;;39.75;28.95;;;11.50;99.90;;;;;;4945896;28;20031;-89
2020/12/23 10:33:36;;;;;;;31.52;25.95;;;11.50;99.90;;;;;;4948693;28;20058;-90
2020/12/23 10:36:06;;;;;;;57.58;29.75;;;11.50;99.90;;;;;;4961047;28;20118;-89
2020/12/23 10:38:33;;;;;;;34.28;24.63;;;11.50;99.90;;;;;;4961056;28;20461;-89
2020/12/23 10:40:58;;;;;;;33.40;26.48;;;11.50;99.90;;;;;;4960005;28;20085;-88
2020/12/23 10:43:24;;;;;;;41.42;30.05;;;11.50;99.90;;;;;;4960413;28;20035;-89
2020/12/23 10:45:52;;;;;;;48.25;32.92;;;11.60;99.90;;;;;;4978046;28;20089;-88
2020/12/23 10:48:18;;;;;;;47.60;32.70;;;11.50;99.90;;;;;;4961540;28;20042;-89
2020/12/23 10:50:45;;;;;;;46.13;32.97;;;11.60;99.90;;;;;;4960761;28;20031;-89
2020/12/23 10:53:10;;;;;;;50.50;34.83;;;11.50;99.90;;;;;;4959940;28;20035;-90
2020/12/23 10:55:36;;;;;;;54.83;37.35;;;11.50;99.90;;;;;;4959498;28;20029;-89
2020/12/23 10:58:04;;;;;;;45.33;33.58;;;11.50;99.90;;;;;;4942292;28;20058;-87
2020/12/23 11:00:33;;;;;;;48.58;35.10;;;11.60;99.90;;;;;;4959793;28;20027;-88
2020/12/23 11:03:03;;;;;;;43.75;32.20;;;11.60;99.90;;;;;;4959531;28;20101;-89
2020/12/23 11:05:29;;;;;;;35.17;29.50;;;11.60;99.90;;;;;;4943462;28;20039;-88
2020/12/23 11:08:30;;;;;;;41.70;32.85;;;11.60;99.90;;;;;;4959067;28;20540;-89
2020/12/23 11:10:56;;;;;;;45.08;36.25;;;11.60;99.90;;;;;;4959476;28;20125;-89
2020/12/23 11:13:24;;;;;;;51.72;38.67;;;11.70;99.90;;;;;;4959184;28;20030;-88
2020/12/23 11:15:52;;;;;;;56.65;41.72;;;11.70;99.90;;;;;;4959283;28;20031;-88
2020/12/23 11:18:20;;;;;;;47.65;37.80;;;11.60;99.90;;;;;;4963540;28;20023;-89
2020/12/23 11:20:46;;;;;;;54.50;39.97;;;11.70;99.90;;;;;;4958973;28;20113;-89
2020/12/23 11:23:25;;;;;;;40.38;32.92;;;11.60;99.90;;;;;;4958624;28;20030;-89
2020/12/23 11:25:55;;;;;;;41.42;32.42;;;11.70;99.90;;;;;;4958635;28;20031;-87
2020/12/23 11:28:24;;;;;;;59.88;44.30;;;11.80;99.90;;;;;;4958779;28;20023;-88
2020/12/23 11:30:51;;;;;;;51.65;37.63;;;11.70;99.90;;;;;;4958278;28;20057;-88
2020/12/23 11:33:17;;;;;;;44.75;34.75;;;11.70;99.90;;;;;;4958271;28;20030;-88
2020/12/23 11:35:43;;;;;;;39.28;31.88;;;11.70;99.90;;;;;;4958331;28;20035;-88
2020/12/23 11:38:09;;;;;;;45.97;35.47;;;11.60;99.90;;;;;;4958327;28;20027;-88
2020/12/23 11:40:34;;;;;;;56.28;39.90;;;11.60;99.90;;;;;;4959011;28;20030;-88
2020/12/23 11:43:02;;;;;;;53.95;37.72;;;11.60;99.90;;;;;;4958103;28;20039;-89
2020/12/23 11:45:38;;;;;;;;;;;;;;;;;;;;;
2020/12/23 11:48:11;;;;;;;42.55;31.15;;;11.60;99.90;;;;;;4974298;28;20077;-89
2020/12/23 11:50:41;;;;;;;36.08;26.23;;;11.60;99.90;;;;;;4968589;28;20066;-89
2020/12/23 11:53:07;;;;;;;44.78;31.05;;;11.70;99.90;;;;;;4963660;28;20066;-89
2020/12/23 11:55:33;;;;;;;54.45;35.33;;;11.70;99.90;;;;;;4958101;28;20058;-89
2020/12/23 11:58:01;;;;;;;48.85;29.90;;;11.80;99.90;;;;;;4957786;28;20026;-89
2020/12/23 12:00:29;;;;;;;41.90;30.85;;;11.70;99.90;;;;;;4944316;28;20461;-88
2020/12/23 12:03:00;;;;;;;44.95;31.95;;;11.70;99.90;;;;;;4959104;28;20121;-88
2020/12/23 12:05:31;;;;;;;30.70;24.25;;;11.70;99.90;;;;;;4975815;28;20026;-87
2020/12/23 12:08:07;;;;;;;28.77;21.80;;;11.70;99.90;;;;;;4942787;28;20193;-89
2020/12/23 12:10:35;;;;;;;39.80;25.35;;;11.70;99.90;;;;;;4976859;28;20106;-88
2020/12/23 12:13:08;;;;;;;23.52;18.95;;;11.70;99.90;;;;;;4958418;28;20532;-88
2020/12/23 12:15:34;;;;;;;31.52;22.90;;;11.80;99.90;;;;;;4941857;28;20031;-87
2020/12/23 12:17:59;;;;;;;20.70;16.15;;;11.70;99.90;;;;;;4958314;28;20031;-89
2020/12/23 12:20:25;;;;;;;19.95;16.08;;;11.60;99.90;;;;;;4958573;28;20054;-87
2020/12/23 12:22:55;;;;;;;31.58;21.45;;;11.70;99.90;;;;;;4975817;28;20042;-88
2020/12/23 12:25:20;;;;;;;30.13;18.52;;;11.60;99.90;;;;;;4942103;28;20081;-89
2020/12/23 12:27:46;;;;;;;26.42;17.80;;;11.70;99.90;;;;;;4957898;28;20461;-87
2020/12/23 12:30:15;;;;;;;27.10;17.40;;;11.70;99.90;;;;;;4956614;28;20023;-87
2020/12/23 12:32:41;;;;;;;22.45;16.65;;;11.60;99.90;;;;;;4959161;28;20053;-89
2020/12/23 12:35:10;;;;;;;16.20;12.88;;;11.60;99.90;;;;;;4960122;28;20035;-88
2020/12/23 12:37:38;;;;;;;22.42;15.23;;;11.60;99.90;;;;;;4962997;28;20038;-88
2020/12/23 12:40:04;;;;;;;16.50;12.48;;;11.60;99.90;;;;;;4961376;28;20026;-88
2020/12/23 12:42:30;;;;;;;15.25;11.57;;;11.50;99.90;;;;;;4961816;28;20054;-88
2020/12/23 12:45:00;;;;;;;18.48;12.48;;;11.60;99.90;;;;;;4945754;28;20031;-89